Terminal Aerodrome Forecast
Issued by NWS

Home | Current Version | Previous Version | Text Only | Print | Product List | Glossary On
Versions: 1 2 3 4 5 6 7 8 9 10 11 12 13 14
000
FTUS44 KLIX 291734
TAFGPT
TAF
KGPT 291734Z 2918/3018 07007G15KT P6SM SCT035
     FM292000 12012KT P6SM FEW045
     FM300200 08006KT P6SM SCT250
     FM300800 03007KT P6SM FEW250
     FM301500 07008KT P6SM SCT030=

USA.gov is the U.S. government's official web portal to all federal, state and local government web resources and services.